createdAt,value
2018-12-22T00:00:29.686Z,0.90
2018-12-22T00:02:32.273Z,0.63
2018-12-22T00:04:34.813Z,1.40
2018-12-22T00:06:37.546Z,1.10
2018-12-22T00:08:40.227Z,0.73
2018-12-22T00:10:42.737Z,0.70
2018-12-22T00:12:45.425Z,0.97
2018-12-22T00:14:47.930Z,0.73
2018-12-22T00:16:50.625Z,1.10
2018-12-22T00:18:53.161Z,1.33
2018-12-22T00:20:55.681Z,2.07
2018-12-22T00:22:58.309Z,2.77
2018-12-22T00:25:00.821Z,2.97
2018-12-22T00:27:03.660Z,1.17
2018-12-22T00:29:06.186Z,0.70
2018-12-22T00:31:08.737Z,2.30
2018-12-22T00:33:11.334Z,0.90
2018-12-22T00:35:13.896Z,0.90
2018-12-22T00:37:16.494Z,1.10
2018-12-22T00:39:19.021Z,1.33
2018-12-22T00:41:21.542Z,1.30
2018-12-22T00:43:24.077Z,1.20
2018-12-22T00:45:26.702Z,1.10
2018-12-22T00:47:29.373Z,0.80
2018-12-22T00:49:31.885Z,0.63
2018-12-22T00:51:34.480Z,0.80
2018-12-22T00:53:37.016Z,0.70
2018-12-22T00:55:39.549Z,0.70
2018-12-22T00:57:42.105Z,1.07
2018-12-22T00:59:44.626Z,0.80
2018-12-22T01:01:47.250Z,2.00
2018-12-22T01:03:49.846Z,0.70
2018-12-22T01:05:52.377Z,0.80
2018-12-22T01:07:55.053Z,0.73
2018-12-22T01:09:57.660Z,1.60
2018-12-22T01:12:00.380Z,0.70
2018-12-22T01:14:03.011Z,1.13
2018-12-22T01:16:05.590Z,0.60
2018-12-22T01:18:08.118Z,0.70
2018-12-22T01:20:10.712Z,0.70
2018-12-22T01:22:13.321Z,1.30
2018-12-22T01:24:15.927Z,0.93
2018-12-22T01:26:18.600Z,1.43
2018-12-22T01:28:21.141Z,2.37
2018-12-22T01:30:23.921Z,1.20
2018-12-22T01:32:26.543Z,1.73
2018-12-22T01:34:29.226Z,1.30
2018-12-22T01:36:31.762Z,1.10
2018-12-22T01:38:34.325Z,2.27
2018-12-22T01:40:36.885Z,1.30
2018-12-22T01:42:39.397Z,1.33
2018-12-22T01:44:42.087Z,3.00
2018-12-22T01:46:44.601Z,1.50
2018-12-22T01:48:47.135Z,3.20
2018-12-22T01:50:49.688Z,1.97
2018-12-22T01:52:52.406Z,1.87
2018-12-22T01:54:55.026Z,3.43
2018-12-22T01:56:57.645Z,3.47
2018-12-22T01:59:00.258Z,2.87
2018-12-22T02:01:02.800Z,4.63
2018-12-22T02:03:05.427Z,2.77
2018-12-22T02:05:07.974Z,3.07
2018-12-22T02:07:10.542Z,4.83
2018-12-22T02:09:13.193Z,2.97
2018-12-22T02:11:15.850Z,3.70
2018-12-22T02:13:18.444Z,2.27
2018-12-22T02:15:21.035Z,4.53
2018-12-22T02:17:23.610Z,3.00
2018-12-22T02:19:26.562Z,2.77
2018-12-22T02:21:29.210Z,5.60
2018-12-22T02:23:31.782Z,5.17
2018-12-22T02:25:34.403Z,2.30
2018-12-22T02:27:36.941Z,3.23
2018-12-22T02:29:39.491Z,2.73
2018-12-22T02:31:42.062Z,4.00
2018-12-22T02:33:44.727Z,3.00
2018-12-22T02:35:47.251Z,2.73
2018-12-22T02:37:49.959Z,2.70
2018-12-22T02:39:52.684Z,2.50
2018-12-22T02:41:55.204Z,3.93
2018-12-22T02:43:57.843Z,3.87
2018-12-22T02:46:00.411Z,2.50
2018-12-22T02:48:02.939Z,2.67
2018-12-22T02:50:07.527Z,2.13
2018-12-22T02:52:10.227Z,3.97
2018-12-22T02:54:12.881Z,2.83
2018-12-22T02:56:15.550Z,2.60
2018-12-22T02:58:18.134Z,2.70
2018-12-22T03:00:20.758Z,3.93
2018-12-22T03:02:23.376Z,2.93
2018-12-22T03:04:25.891Z,2.73
2018-12-22T03:06:28.417Z,3.43
2018-12-22T03:08:31.066Z,3.50
2018-12-22T03:10:33.789Z,3.80
2018-12-22T03:12:36.400Z,3.40
2018-12-22T03:14:39.023Z,2.73
2018-12-22T03:16:41.813Z,2.67
2018-12-22T03:18:44.367Z,3.30
2018-12-22T03:20:46.925Z,2.30
2018-12-22T03:22:50.083Z,2.80
2018-12-22T03:24:52.603Z,2.13
2018-12-22T03:26:55.135Z,2.40
2018-12-22T03:28:57.715Z,1.70
2018-12-22T03:31:00.398Z,1.40
2018-12-22T03:33:02.934Z,2.80
2018-12-22T03:35:05.702Z,1.67
2018-12-22T03:37:08.269Z,4.83
2018-12-22T03:39:10.804Z,2.13
2018-12-22T03:41:13.351Z,3.43
2018-12-22T03:43:15.880Z,3.53
2018-12-22T03:45:18.442Z,1.60
2018-12-22T03:47:20.994Z,1.60
2018-12-22T03:49:23.530Z,2.47
2018-12-22T03:51:26.190Z,3.40
2018-12-22T03:53:28.807Z,1.80
2018-12-22T03:55:31.337Z,2.50
2018-12-22T03:57:33.890Z,1.80
2018-12-22T03:59:36.599Z,2.40
2018-12-22T04:01:39.205Z,2.73
2018-12-22T04:03:41.736Z,2.03
2018-12-22T04:05:44.278Z,1.37
2018-12-22T04:07:47.811Z,0.90
2018-12-22T04:09:50.560Z,1.53
2018-12-22T04:11:53.160Z,1.57
2018-12-22T04:13:55.772Z,1.27
2018-12-22T04:15:58.422Z,0.90
2018-12-22T04:18:01.111Z,0.90
2018-12-22T04:20:05.676Z,0.90
2018-12-22T04:22:08.189Z,0.83
2018-12-22T04:24:10.785Z,0.70
2018-12-22T04:26:13.315Z,0.70
2018-12-22T04:28:15.825Z,0.53
2018-12-22T04:30:18.461Z,0.60
2018-12-22T04:32:21.127Z,1.77
2018-12-22T04:34:23.690Z,1.30
2018-12-22T04:36:26.300Z,2.53
2018-12-22T04:38:28.848Z,0.57
2018-12-22T04:40:31.452Z,0.70
2018-12-22T04:42:34.023Z,0.87
2018-12-22T04:44:36.627Z,0.50
2018-12-22T04:46:39.211Z,0.70
2018-12-22T04:48:41.807Z,0.53
2018-12-22T04:50:44.338Z,1.13
2018-12-22T04:52:46.954Z,1.23
2018-12-22T04:54:49.492Z,0.63
2018-12-22T04:56:52.074Z,1.03
2018-12-22T04:58:54.705Z,2.37
2018-12-22T05:00:57.248Z,0.70
2018-12-22T05:02:59.772Z,0.60
2018-12-22T05:05:03.336Z,0.60
2018-12-22T05:07:05.928Z,1.80
2018-12-22T05:09:08.640Z,0.60
2018-12-22T05:11:11.180Z,0.70
2018-12-22T05:13:13.763Z,0.70
2018-12-22T05:15:16.363Z,0.60
2018-12-22T05:17:19.025Z,0.60
2018-12-22T05:19:21.625Z,0.60
2018-12-22T05:21:24.223Z,0.70
2018-12-22T05:23:26.863Z,0.63
2018-12-22T05:25:29.497Z,1.70
2018-12-22T05:27:32.170Z,1.10
2018-12-22T05:29:34.681Z,0.70
2018-12-22T05:31:37.255Z,0.90
2018-12-22T05:33:39.805Z,2.20
2018-12-22T05:35:42.389Z,1.47
2018-12-22T05:37:45.041Z,2.10
2018-12-22T05:39:47.601Z,1.40
2018-12-22T05:41:50.253Z,1.50
2018-12-22T05:43:52.777Z,1.03
2018-12-22T05:45:55.302Z,0.70
2018-12-22T05:47:57.826Z,0.60
2018-12-22T05:50:00.376Z,0.60
2018-12-22T05:52:02.917Z,0.70
2018-12-22T05:54:05.451Z,0.97
2018-12-22T05:56:07.971Z,0.70
2018-12-22T05:58:10.635Z,0.57
2018-12-22T06:00:13.158Z,0.60
2018-12-22T06:02:15.802Z,0.50
2018-12-22T06:04:18.357Z,0.60
2018-12-22T06:06:20.910Z,1.13
2018-12-22T06:08:23.531Z,0.70
2018-12-22T06:10:26.221Z,0.60
2018-12-22T06:12:28.884Z,0.83
2018-12-22T06:14:31.398Z,1.30
2018-12-22T06:16:33.970Z,0.70
2018-12-22T06:18:36.513Z,0.50
2018-12-22T06:20:39.118Z,2.00
2018-12-22T06:22:41.768Z,0.70
2018-12-22T06:24:44.335Z,0.83
2018-12-22T06:26:46.916Z,0.80
2018-12-22T06:28:49.452Z,2.10
2018-12-22T06:30:52.026Z,2.07
2018-12-22T06:32:54.557Z,1.17
2018-12-22T06:34:57.209Z,0.70
2018-12-22T06:36:59.856Z,0.70
2018-12-22T06:39:02.369Z,1.00
2018-12-22T06:41:04.927Z,1.03
2018-12-22T06:43:07.431Z,2.10
2018-12-22T06:45:09.978Z,0.77
2018-12-22T06:47:12.528Z,0.97
2018-12-22T06:49:15.051Z,1.10
2018-12-22T06:51:17.597Z,2.47
2018-12-22T06:53:20.175Z,1.10
2018-12-22T06:55:22.701Z,1.30
2018-12-22T06:57:25.356Z,2.60
2018-12-22T06:59:27.865Z,0.70
2018-12-22T07:01:30.406Z,1.97
2018-12-22T07:03:33.056Z,0.80
2018-12-22T07:05:35.750Z,1.20
2018-12-22T07:07:38.349Z,1.63
2018-12-22T07:09:40.918Z,2.20
2018-12-22T07:11:43.646Z,2.27
2018-12-22T07:13:46.158Z,2.13
2018-12-22T07:15:48.715Z,1.80
2018-12-22T07:17:51.276Z,1.13
2018-12-22T07:19:53.868Z,1.37
2018-12-22T07:21:56.526Z,1.70
2018-12-22T07:23:59.030Z,0.97
2018-12-22T07:26:01.623Z,2.43
2018-12-22T07:28:04.161Z,0.60
2018-12-22T07:30:08.884Z,1.07
2018-12-22T07:32:11.511Z,0.83
2018-12-22T07:34:14.033Z,1.60
2018-12-22T07:36:16.647Z,1.97
2018-12-22T07:38:19.271Z,1.43
2018-12-22T07:40:21.815Z,1.57
2018-12-22T07:42:24.521Z,1.57
2018-12-22T07:44:27.361Z,1.43
2018-12-22T07:46:29.990Z,1.87
2018-12-22T07:48:32.710Z,1.90
2018-12-22T07:50:35.413Z,1.50
2018-12-22T07:52:37.989Z,1.03
2018-12-22T07:54:40.666Z,0.63
2018-12-22T07:56:43.430Z,1.87
2018-12-22T07:58:46.086Z,1.47
2018-12-22T08:00:48.606Z,0.70
2018-12-22T08:02:51.226Z,0.80
2018-12-22T08:04:53.936Z,3.23
2018-12-22T08:06:56.469Z,1.07
2018-12-22T08:08:59.089Z,1.60
2018-12-22T08:11:01.629Z,0.60
2018-12-22T08:13:04.242Z,1.80
2018-12-22T08:15:06.830Z,0.73
2018-12-22T08:17:09.490Z,2.70
2018-12-22T08:19:12.144Z,0.97
2018-12-22T08:21:14.723Z,3.10
2018-12-22T08:23:17.305Z,0.80
2018-12-22T08:25:19.921Z,1.00
2018-12-22T08:27:22.617Z,1.77
2018-12-22T08:29:25.158Z,0.70
2018-12-22T08:31:27.754Z,1.30
2018-12-22T08:33:30.310Z,1.60
2018-12-22T08:35:32.877Z,1.53
2018-12-22T08:37:35.673Z,0.87
2018-12-22T08:39:38.286Z,1.33
2018-12-22T08:41:40.835Z,1.20
2018-12-22T08:43:43.366Z,1.07
2018-12-22T08:45:45.890Z,2.17
2018-12-22T08:47:48.416Z,2.07
2018-12-22T08:49:50.993Z,1.23
2018-12-22T08:51:53.611Z,2.60
2018-12-22T08:53:56.119Z,1.43
2018-12-22T08:55:58.754Z,1.27
2018-12-22T08:58:01.270Z,4.03
2018-12-22T09:00:06.494Z,3.60
2018-12-22T09:02:09.069Z,1.63
2018-12-22T09:04:11.634Z,2.63
2018-12-22T09:06:14.253Z,1.87
2018-12-22T09:08:16.856Z,1.30
2018-12-22T09:10:19.397Z,5.33
2018-12-22T09:12:21.958Z,3.20
2018-12-22T09:14:24.546Z,3.43
2018-12-22T09:16:27.205Z,2.93
2018-12-22T09:18:29.862Z,2.97
2018-12-22T09:20:32.742Z,2.47
2018-12-22T09:22:35.309Z,2.30
2018-12-22T09:24:37.971Z,1.73
2018-12-22T09:26:40.541Z,2.13
2018-12-22T09:28:43.087Z,2.60
2018-12-22T09:30:45.633Z,2.20
2018-12-22T09:32:48.186Z,3.80
2018-12-22T09:34:50.730Z,3.10
2018-12-22T09:36:53.434Z,2.73
2018-12-22T09:38:56.039Z,1.70
2018-12-22T09:40:58.722Z,1.87
2018-12-22T09:43:01.254Z,5.60
2018-12-22T09:45:05.098Z,1.80
2018-12-22T09:47:07.686Z,1.73
2018-12-22T09:49:10.291Z,4.10
2018-12-22T09:51:12.802Z,2.80
2018-12-22T09:53:15.519Z,0.90
2018-12-22T09:55:18.054Z,3.77
2018-12-22T09:57:20.578Z,2.53
2018-12-22T09:59:23.190Z,2.83
2018-12-22T10:01:25.829Z,4.30
2018-12-22T10:03:28.433Z,2.73
2018-12-22T10:05:32.947Z,3.00
2018-12-22T10:07:35.509Z,3.67
2018-12-22T10:09:38.039Z,4.13
2018-12-22T10:11:40.706Z,2.63
2018-12-22T10:13:43.384Z,4.30
2018-12-22T10:15:45.932Z,2.50
2018-12-22T10:17:48.675Z,2.07
2018-12-22T10:19:51.205Z,4.10
2018-12-22T10:21:53.771Z,1.83
2018-12-22T10:23:56.305Z,3.37
2018-12-22T10:25:58.896Z,1.10
2018-12-22T10:28:01.499Z,2.47
2018-12-22T10:30:07.020Z,4.83
2018-12-22T10:32:09.576Z,3.80
2018-12-22T10:34:12.143Z,2.10
2018-12-22T10:36:14.669Z,2.27
2018-12-22T10:38:17.192Z,6.40
2018-12-22T10:40:19.884Z,2.80
2018-12-22T10:42:22.514Z,4.73
2018-12-22T10:44:25.184Z,1.33
2018-12-22T10:46:27.894Z,1.73
2018-12-22T10:48:30.418Z,3.27
2018-12-22T10:50:32.965Z,2.57
2018-12-22T10:52:35.529Z,1.67
2018-12-22T10:54:38.147Z,1.80
2018-12-22T10:56:40.877Z,5.50
2018-12-22T10:58:43.522Z,3.90
2018-12-22T11:00:46.215Z,1.77
2018-12-22T11:02:48.813Z,9.60
2018-12-22T11:04:51.404Z,2.93
2018-12-22T11:06:54.100Z,3.93
2018-12-22T11:08:56.722Z,5.33
2018-12-22T11:10:59.271Z,4.00
2018-12-22T11:13:01.858Z,4.20
2018-12-22T11:15:06.621Z,4.60
2018-12-22T11:17:09.251Z,4.93
2018-12-22T11:19:11.802Z,2.53
2018-12-22T11:21:14.668Z,4.07
2018-12-22T11:23:20.513Z,7.67
2018-12-22T11:25:21.817Z,4.23
2018-12-22T11:27:24.373Z,4.13
2018-12-22T11:29:26.941Z,5.33
2018-12-22T11:31:34.975Z,5.20
2018-12-22T11:33:34.148Z,6.13
2018-12-22T11:35:36.773Z,4.27
2018-12-22T11:37:39.329Z,3.63
2018-12-22T11:39:41.854Z,6.00
2018-12-22T11:41:44.417Z,4.63
2018-12-22T11:43:46.956Z,4.13
2018-12-22T11:45:49.581Z,5.23
2018-12-22T11:47:52.475Z,8.37
2018-12-22T11:49:55.023Z,3.03
2018-12-22T11:51:57.641Z,7.17
2018-12-22T11:54:00.181Z,7.03
2018-12-22T11:56:02.696Z,4.77
2018-12-22T11:58:05.249Z,4.67
2018-12-22T12:00:09.332Z,6.10
2018-12-22T12:02:11.940Z,7.57
2018-12-22T12:04:14.611Z,5.70
2018-12-22T12:06:17.217Z,6.80
2018-12-22T12:08:19.762Z,4.90
2018-12-22T12:10:22.286Z,3.77
2018-12-22T12:12:24.864Z,6.87
2018-12-22T12:14:27.557Z,2.17
2018-12-22T12:16:30.142Z,3.83
2018-12-22T12:18:43.426Z,2.23
2018-12-22T12:20:45.942Z,1.93
2018-12-22T12:22:48.484Z,1.37
2018-12-22T12:24:51.074Z,3.77
2018-12-22T12:26:53.662Z,2.60
2018-12-22T12:28:56.225Z,3.20
2018-12-22T12:30:58.759Z,3.47
2018-12-22T12:33:01.238Z,2.37
2018-12-22T12:35:05.278Z,3.90
2018-12-22T12:37:08.130Z,2.90
2018-12-22T12:39:10.752Z,3.33
2018-12-22T12:41:13.324Z,2.07
2018-12-22T12:43:15.842Z,1.47
2018-12-22T12:45:18.438Z,2.10
2018-12-22T12:47:20.947Z,2.73
2018-12-22T12:49:23.497Z,3.70
2018-12-22T12:51:26.013Z,3.67
2018-12-22T12:53:28.689Z,3.33
2018-12-22T12:55:31.237Z,16.73
2018-12-22T12:57:33.757Z,5.70
2018-12-22T12:59:36.384Z,4.40
2018-12-22T13:01:38.920Z,3.23
2018-12-22T13:03:41.550Z,2.50
2018-12-22T13:05:44.185Z,1.60
2018-12-22T13:07:46.705Z,2.43
2018-12-22T13:09:49.336Z,1.90
2018-12-22T13:11:51.888Z,3.73
2018-12-22T13:13:54.544Z,4.27
2018-12-22T13:15:57.177Z,2.00
2018-12-22T13:17:59.828Z,2.53
2018-12-22T13:20:02.364Z,1.93
2018-12-22T13:22:04.930Z,4.50
2018-12-22T13:24:07.471Z,1.00
2018-12-22T13:26:10.081Z,2.03
2018-12-22T13:28:12.725Z,5.90
2018-12-22T13:30:15.313Z,10.10
2018-12-22T13:32:18.052Z,2.97
2018-12-22T13:34:20.554Z,3.40
2018-12-22T13:36:23.210Z,4.43
2018-12-22T13:38:25.828Z,2.80
2018-12-22T13:40:28.430Z,3.97
2018-12-22T13:42:30.967Z,3.47
2018-12-22T13:44:33.551Z,4.10
2018-12-22T13:46:36.157Z,4.50
2018-12-22T13:48:39.032Z,2.00
2018-12-22T13:50:41.820Z,4.80
2018-12-22T13:52:44.457Z,2.70
2018-12-22T13:54:46.996Z,2.97
2018-12-22T13:56:49.574Z,5.40
2018-12-22T13:58:52.277Z,5.43
2018-12-22T14:00:54.789Z,5.73
2018-12-22T14:02:57.376Z,4.73
2018-12-22T14:04:59.910Z,4.00
2018-12-22T14:07:02.533Z,6.87
2018-12-22T14:09:06.898Z,4.10
2018-12-22T14:11:09.716Z,5.93
2018-12-22T14:13:12.662Z,8.47
2018-12-22T14:15:23.347Z,7.47
2018-12-22T14:17:25.868Z,13.43
2018-12-22T14:19:28.466Z,11.07
2018-12-22T14:21:30.962Z,5.20
2018-12-22T14:23:54.968Z,6.90
2018-12-22T14:25:57.637Z,5.00
2018-12-22T14:28:00.188Z,5.33
2018-12-22T14:30:04.131Z,4.80
2018-12-22T14:32:06.654Z,4.20
2018-12-22T14:34:12.948Z,3.87
2018-12-22T14:36:15.547Z,4.30
2018-12-22T14:38:18.175Z,6.70
2018-12-22T14:40:20.846Z,5.80
2018-12-22T14:42:23.434Z,6.47
2018-12-22T14:44:26.035Z,8.23
2018-12-22T14:46:28.661Z,6.57
2018-12-22T14:48:31.218Z,5.17
2018-12-22T14:50:33.771Z,4.90
2018-12-22T14:52:36.407Z,7.63
2018-12-22T14:54:38.959Z,7.37
2018-12-22T14:56:41.621Z,8.27
2018-12-22T14:58:44.253Z,5.43
2018-12-22T15:00:46.817Z,5.83
2018-12-22T15:02:49.463Z,7.13
2018-12-22T15:04:52.055Z,3.73
2018-12-22T15:06:54.588Z,4.37
2018-12-22T15:08:57.164Z,4.27
2018-12-22T15:10:59.709Z,6.30
2018-12-22T15:13:02.398Z,5.83
2018-12-22T15:15:09.777Z,5.27
2018-12-22T15:17:12.314Z,2.83
2018-12-22T15:19:14.882Z,4.80
2018-12-22T15:21:17.454Z,5.53
2018-12-22T15:23:20.094Z,5.40
2018-12-22T15:25:22.686Z,10.63
2018-12-22T15:27:25.230Z,11.50
2018-12-22T15:29:27.791Z,8.03
2018-12-22T15:31:30.416Z,2.50
2018-12-22T15:33:33.113Z,3.63
2018-12-22T15:35:36.645Z,4.00
2018-12-22T15:37:39.331Z,4.43
2018-12-22T15:39:41.926Z,4.97
2018-12-22T15:41:44.613Z,5.03
2018-12-22T15:43:47.134Z,2.70
2018-12-22T15:45:49.708Z,4.67
2018-12-22T15:47:52.255Z,7.17
2018-12-22T15:49:54.770Z,3.63
2018-12-22T15:51:57.520Z,4.13
2018-12-22T15:54:00.055Z,8.37
2018-12-22T15:56:02.657Z,7.40
2018-12-22T15:58:05.190Z,4.97
2018-12-22T16:00:10.765Z,5.17
2018-12-22T16:02:13.343Z,3.67
2018-12-22T16:04:15.933Z,6.37
2018-12-22T16:06:18.546Z,6.53
2018-12-22T16:08:21.218Z,5.23
2018-12-22T16:10:23.863Z,4.73
2018-12-22T16:12:26.430Z,6.63
2018-12-22T16:14:28.972Z,6.00
2018-12-22T16:16:31.500Z,3.23
2018-12-22T16:18:34.066Z,5.97
2018-12-22T16:20:36.643Z,5.00
2018-12-22T16:22:41.450Z,4.97
2018-12-22T16:24:44.174Z,3.10
2018-12-22T16:26:46.740Z,5.73
2018-12-22T16:28:49.380Z,4.47
2018-12-22T16:30:51.950Z,3.50
2018-12-22T16:33:01.546Z,4.87
2018-12-22T16:34:59.058Z,4.73
2018-12-22T16:37:01.634Z,5.47
2018-12-22T16:39:06.040Z,6.80
2018-12-22T16:41:08.787Z,5.53
2018-12-22T16:43:11.376Z,3.20
2018-12-22T16:45:15.800Z,8.60
2018-12-22T16:47:18.312Z,6.00
2018-12-22T16:49:20.897Z,7.53
2018-12-22T16:51:23.478Z,6.63
2018-12-22T16:53:26.003Z,7.13
2018-12-22T16:55:28.510Z,5.83
2018-12-22T16:57:31.101Z,2.67
2018-12-22T16:59:33.837Z,4.10
2018-12-22T17:01:39.205Z,4.13
2018-12-22T17:03:41.726Z,4.30
2018-12-22T17:05:44.332Z,4.23
2018-12-22T17:07:46.984Z,2.93
2018-12-22T17:09:49.592Z,5.47
2018-12-22T17:11:52.105Z,3.13
2018-12-22T17:13:54.679Z,4.77
2018-12-22T17:15:57.214Z,2.40
2018-12-22T17:17:59.782Z,8.30
2018-12-22T17:20:02.457Z,5.10
2018-12-22T17:22:05.106Z,6.60
2018-12-22T17:24:07.817Z,2.60
2018-12-22T17:26:10.462Z,4.13
2018-12-22T17:28:13.070Z,3.70
2018-12-22T17:30:15.637Z,3.80
2018-12-22T17:32:18.310Z,2.07
2018-12-22T17:34:20.824Z,2.67
2018-12-22T17:36:25.412Z,2.57
2018-12-22T17:38:28.058Z,4.97
2018-12-22T17:40:30.625Z,2.03
2018-12-22T17:42:33.163Z,2.00
2018-12-22T17:44:35.692Z,1.30
2018-12-22T17:46:38.462Z,1.30
2018-12-22T17:48:41.078Z,2.93
2018-12-22T17:50:43.733Z,1.23
2018-12-22T17:52:46.281Z,1.67
2018-12-22T17:54:48.835Z,1.23
2018-12-22T17:56:51.362Z,1.17
2018-12-22T17:58:53.881Z,1.73
2018-12-22T18:00:56.670Z,1.63
2018-12-22T18:02:59.298Z,2.13
2018-12-22T18:05:01.979Z,3.17
2018-12-22T18:07:04.578Z,4.47
2018-12-22T18:09:07.202Z,2.67
2018-12-22T18:11:10.057Z,1.33
2018-12-22T18:13:12.663Z,1.67
2018-12-22T18:15:22.884Z,3.13
2018-12-22T18:17:25.478Z,3.83
2018-12-22T18:19:29.267Z,2.00
2018-12-22T18:21:32.746Z,5.20
2018-12-22T18:23:35.308Z,4.53
2018-12-22T18:25:38.021Z,7.10
2018-12-22T18:27:40.639Z,5.27
2018-12-22T18:29:43.300Z,6.70
2018-12-22T18:31:45.922Z,3.73
2018-12-22T18:33:48.588Z,5.50
2018-12-22T18:35:51.257Z,6.20
2018-12-22T18:37:53.916Z,10.20
2018-12-22T18:39:56.558Z,7.83
2018-12-22T18:41:59.231Z,9.80
2018-12-22T18:44:01.942Z,5.80
2018-12-22T18:46:04.623Z,7.20
2018-12-22T18:48:07.283Z,9.57
2018-12-22T18:50:12.622Z,7.50
2018-12-22T18:52:15.154Z,8.30
2018-12-22T18:54:17.737Z,6.27
2018-12-22T18:56:20.430Z,7.63
2018-12-22T18:58:23.044Z,10.10
2018-12-22T19:00:25.647Z,9.73
2018-12-22T19:02:28.347Z,9.27
2018-12-22T19:04:30.874Z,3.97
2018-12-22T19:06:34.305Z,8.57
2018-12-22T19:08:36.850Z,6.43
2018-12-22T19:10:39.409Z,8.93
2018-12-22T19:12:41.986Z,8.27
2018-12-22T19:14:53.195Z,6.13
2018-12-22T19:16:55.702Z,9.67
2018-12-22T19:18:58.395Z,8.30
2018-12-22T19:21:00.952Z,12.93
2018-12-22T19:23:03.473Z,10.70
2018-12-22T19:25:07.238Z,16.93
2018-12-22T19:27:09.812Z,11.80
2018-12-22T19:29:12.346Z,13.20
2018-12-22T19:31:15.003Z,14.73
2018-12-22T19:33:17.680Z,11.07
2018-12-22T19:35:20.407Z,6.43
2018-12-22T19:37:23.014Z,9.83
2018-12-22T19:39:25.647Z,8.63
2018-12-22T19:41:28.290Z,11.43
2018-12-22T19:43:30.832Z,20.63
2018-12-22T19:45:33.528Z,21.57
2018-12-22T19:47:36.074Z,19.50
2018-12-22T19:49:38.613Z,18.73
2018-12-22T19:51:41.229Z,21.20
2018-12-22T19:53:43.897Z,24.23
2018-12-22T19:55:46.466Z,21.67
2018-12-22T19:57:49.088Z,20.77
2018-12-22T19:59:51.609Z,20.13
2018-12-22T20:01:54.165Z,19.40
2018-12-22T20:04:02.062Z,15.63
2018-12-22T20:06:01.214Z,9.03
2018-12-22T20:08:03.795Z,13.00
2018-12-22T20:10:06.538Z,11.10
2018-12-22T20:12:09.055Z,8.50
2018-12-22T20:14:11.603Z,6.67
2018-12-22T20:16:14.153Z,10.90
2018-12-22T20:18:16.769Z,9.37
2018-12-22T20:20:19.326Z,7.07
2018-12-22T20:22:21.846Z,11.03
2018-12-22T20:24:24.401Z,8.97
2018-12-22T20:26:26.978Z,5.57
2018-12-22T20:28:29.541Z,10.40
2018-12-22T20:30:32.149Z,14.97
2018-12-22T20:32:34.662Z,9.43
2018-12-22T20:34:37.227Z,9.87
2018-12-22T20:36:39.756Z,7.77
2018-12-22T20:38:42.419Z,12.03
2018-12-22T20:40:45.072Z,9.10
2018-12-22T20:42:47.609Z,7.07
2018-12-22T20:44:50.175Z,5.63
2018-12-22T20:46:52.698Z,10.77
2018-12-22T20:48:55.450Z,7.30
2018-12-22T20:50:58.007Z,8.97
2018-12-22T20:53:00.602Z,6.70
2018-12-22T20:55:03.460Z,12.40
2018-12-22T20:57:06.042Z,10.07
2018-12-22T20:59:08.637Z,7.97
2018-12-22T21:01:11.169Z,10.80
2018-12-22T21:03:13.843Z,7.60
2018-12-22T21:05:17.047Z,10.43
2018-12-22T21:07:19.569Z,9.17
2018-12-22T21:09:22.111Z,7.17
2018-12-22T21:11:24.661Z,9.57
2018-12-22T21:13:27.163Z,7.50
2018-12-22T21:15:29.720Z,6.47
2018-12-22T21:17:32.598Z,7.10
2018-12-22T21:19:35.257Z,8.83
2018-12-22T21:21:37.925Z,9.23
2018-12-22T21:23:40.514Z,6.77
2018-12-22T21:25:43.051Z,12.47
2018-12-22T21:27:45.581Z,9.70
2018-12-22T21:29:48.165Z,8.57
2018-12-22T21:31:50.847Z,10.47
2018-12-22T21:33:53.357Z,7.93
2018-12-22T21:35:55.914Z,11.77
2018-12-22T21:37:58.445Z,13.47
2018-12-22T21:40:01.003Z,7.73
2018-12-22T21:42:03.614Z,8.20
2018-12-22T21:44:06.214Z,8.10
2018-12-22T21:46:10.058Z,9.30
2018-12-22T21:48:12.929Z,8.73
2018-12-22T21:50:15.527Z,7.80
2018-12-22T21:52:18.100Z,6.70
2018-12-22T21:54:20.686Z,8.13
2018-12-22T21:56:23.220Z,6.27
2018-12-22T21:58:25.750Z,7.80
2018-12-22T22:00:28.266Z,8.40
2018-12-22T22:02:30.805Z,11.80
2018-12-22T22:04:37.166Z,9.33
2018-12-22T22:06:38.074Z,6.93
2018-12-22T22:08:40.598Z,9.47
2018-12-22T22:10:43.144Z,7.27
2018-12-22T22:12:45.704Z,10.50
2018-12-22T22:14:48.235Z,7.53
2018-12-22T22:16:50.782Z,8.40
2018-12-22T22:18:53.341Z,6.57
2018-12-22T22:20:55.906Z,7.87
2018-12-22T22:22:58.462Z,7.60
2018-12-22T22:25:01.008Z,9.97
2018-12-22T22:27:03.758Z,8.57
2018-12-22T22:29:06.307Z,9.27
2018-12-22T22:31:08.888Z,16.70
2018-12-22T22:33:11.453Z,10.67
2018-12-22T22:35:14.127Z,12.33
2018-12-22T22:37:16.729Z,12.83
2018-12-22T22:39:19.253Z,8.03
2018-12-22T22:41:21.845Z,15.27
2018-12-22T22:43:24.354Z,16.07
2018-12-22T22:45:26.870Z,9.23
2018-12-22T22:47:29.401Z,10.80
2018-12-22T22:49:31.962Z,9.93
2018-12-22T22:51:34.494Z,11.70
2018-12-22T22:53:37.130Z,7.40
2018-12-22T22:55:39.661Z,10.37
2018-12-22T22:57:42.179Z,7.43
2018-12-22T22:59:44.718Z,6.63
2018-12-22T23:01:47.275Z,10.73
2018-12-22T23:03:49.894Z,8.87
2018-12-22T23:05:52.483Z,14.87
2018-12-22T23:07:55.123Z,9.60
2018-12-22T23:09:57.737Z,10.63
2018-12-22T23:12:00.331Z,9.87
2018-12-22T23:14:02.888Z,8.27
2018-12-22T23:16:05.443Z,10.30
2018-12-22T23:18:08.029Z,9.60
2018-12-22T23:20:10.616Z,8.20
2018-12-22T23:22:13.258Z,8.40
2018-12-22T23:24:15.808Z,8.23
2018-12-22T23:26:18.487Z,9.47
2018-12-22T23:28:20.990Z,6.23
2018-12-22T23:30:23.585Z,8.03
2018-12-22T23:32:28.549Z,9.00
2018-12-22T23:34:31.239Z,10.23
2018-12-22T23:36:33.841Z,11.27
2018-12-22T23:38:36.502Z,7.43
2018-12-22T23:40:39.050Z,9.67
2018-12-22T23:42:41.571Z,5.80
2018-12-22T23:44:44.122Z,12.03
2018-12-22T23:46:46.784Z,8.00
2018-12-22T23:48:49.394Z,7.00
2018-12-22T23:50:51.946Z,10.27
2018-12-22T23:52:54.532Z,11.23
2018-12-22T23:54:57.099Z,9.23
2018-12-22T23:56:59.688Z,5.93
2018-12-22T23:59:02.230Z,5.10
